sensor_id;sensor_type;location;lat;lon;timestamp;P1;durP1;ratioP1;P2;durP2;ratioP2
66085;SDS011;52868;49.758;9.586;2022-11-03T00:02:16;8.77;;;2.97;;
66085;SDS011;52868;49.758;9.586;2022-11-03T00:04:42;5.50;;;2.67;;
66085;SDS011;52868;49.758;9.586;2022-11-03T00:07:08;6.05;;;2.80;;
66085;SDS011;52868;49.758;9.586;2022-11-03T00:09:34;7.90;;;2.30;;
66085;SDS011;52868;49.758;9.586;2022-11-03T00:12:00;8.60;;;2.90;;
66085;SDS011;52868;49.758;9.586;2022-11-03T00:14:26;5.53;;;2.28;;
66085;SDS011;52868;49.758;9.586;2022-11-03T00:16:52;9.05;;;2.58;;
66085;SDS011;52868;49.758;9.586;2022-11-03T00:19:18;7.93;;;2.78;;
66085;SDS011;52868;49.758;9.586;2022-11-03T00:21:44;7.32;;;2.50;;
66085;SDS011;52868;49.758;9.586;2022-11-03T00:24:11;12.45;;;2.65;;
66085;SDS011;52868;49.758;9.586;2022-11-03T00:26:37;8.70;;;2.63;;
66085;SDS011;52868;49.758;9.586;2022-11-03T00:29:10;7.70;;;2.10;;
66085;SDS011;52868;49.758;9.586;2022-11-03T00:31:38;5.35;;;2.40;;
66085;SDS011;52868;49.758;9.586;2022-11-03T00:34:05;10.90;;;2.40;;
66085;SDS011;52868;49.758;9.586;2022-11-03T00:36:33;4.53;;;2.00;;
66085;SDS011;52868;49.758;9.586;2022-11-03T00:39:00;7.57;;;3.20;;
66085;SDS011;52868;49.758;9.586;2022-11-03T00:41:27;5.68;;;2.80;;
66085;SDS011;52868;49.758;9.586;2022-11-03T00:43:53;13.45;;;4.40;;
66085;SDS011;52868;49.758;9.586;2022-11-03T00:46:19;9.30;;;3.97;;
66085;SDS011;52868;49.758;9.586;2022-11-03T00:48:46;11.30;;;4.13;;
66085;SDS011;52868;49.758;9.586;2022-11-03T00:51:22;14.35;;;4.07;;
66085;SDS011;52868;49.758;9.586;2022-11-03T00:53:56;12.30;;;2.95;;
66085;SDS011;52868;49.758;9.586;2022-11-03T00:56:23;8.77;;;3.00;;
66085;SDS011;52868;49.758;9.586;2022-11-03T00:58:52;8.13;;;2.90;;
66085;SDS011;52868;49.758;9.586;2022-11-03T01:01:20;9.40;;;2.83;;
66085;SDS011;52868;49.758;9.586;2022-11-03T01:03:51;10.15;;;3.28;;
66085;SDS011;52868;49.758;9.586;2022-11-03T01:06:38;18.33;;;4.13;;
66085;SDS011;52868;49.758;9.586;2022-11-03T01:09:14;8.45;;;3.25;;
66085;SDS011;52868;49.758;9.586;2022-11-03T01:14:41;10.13;;;3.63;;
66085;SDS011;52868;49.758;9.586;2022-11-03T01:19:41;5.45;;;2.42;;
66085;SDS011;52868;49.758;9.586;2022-11-03T01:22:07;6.38;;;2.35;;
66085;SDS011;52868;49.758;9.586;2022-11-03T01:24:33;4.70;;;2.40;;
66085;SDS011;52868;49.758;9.586;2022-11-03T01:26:59;5.07;;;2.25;;
66085;SDS011;52868;49.758;9.586;2022-11-03T01:29:24;6.07;;;2.50;;
66085;SDS011;52868;49.758;9.586;2022-11-03T01:31:50;4.38;;;2.08;;
66085;SDS011;52868;49.758;9.586;2022-11-03T01:34:17;5.00;;;2.22;;
66085;SDS011;52868;49.758;9.586;2022-11-03T01:36:44;5.32;;;2.33;;
66085;SDS011;52868;49.758;9.586;2022-11-03T01:39:11;6.57;;;2.28;;
66085;SDS011;52868;49.758;9.586;2022-11-03T01:41:38;5.82;;;2.50;;
66085;SDS011;52868;49.758;9.586;2022-11-03T01:47:19;4.97;;;2.33;;
66085;SDS011;52868;49.758;9.586;2022-11-03T01:49:38;5.32;;;2.10;;
66085;SDS011;52868;49.758;9.586;2022-11-03T01:52:16;8.02;;;2.75;;
66085;SDS011;52868;49.758;9.586;2022-11-03T01:54:58;4.57;;;2.30;;
66085;SDS011;52868;49.758;9.586;2022-11-03T01:57:28;9.45;;;2.30;;
66085;SDS011;52868;49.758;9.586;2022-11-03T02:00:04;4.95;;;2.17;;
66085;SDS011;52868;49.758;9.586;2022-11-03T02:02:31;5.53;;;2.63;;
66085;SDS011;52868;49.758;9.586;2022-11-03T02:04:57;4.65;;;2.22;;
66085;SDS011;52868;49.758;9.586;2022-11-03T02:09:54;3.47;;;1.97;;
66085;SDS011;52868;49.758;9.586;2022-11-03T02:12:20;4.15;;;1.92;;
66085;SDS011;52868;49.758;9.586;2022-11-03T02:15:20;3.63;;;1.95;;
66085;SDS011;52868;49.758;9.586;2022-11-03T02:17:40;4.57;;;1.88;;
66085;SDS011;52868;49.758;9.586;2022-11-03T02:20:21;4.57;;;2.08;;
66085;SDS011;52868;49.758;9.586;2022-11-03T02:28:13;3.78;;;1.90;;
66085;SDS011;52868;49.758;9.586;2022-11-03T02:33:21;5.20;;;2.23;;
66085;SDS011;52868;49.758;9.586;2022-11-03T02:36:02;5.00;;;1.70;;
66085;SDS011;52868;49.758;9.586;2022-11-03T02:38:35;3.42;;;1.95;;
66085;SDS011;52868;49.758;9.586;2022-11-03T02:41:05;3.13;;;1.70;;
66085;SDS011;52868;49.758;9.586;2022-11-03T02:43:32;3.40;;;1.60;;
66085;SDS011;52868;49.758;9.586;2022-11-03T02:45:58;5.00;;;2.03;;
66085;SDS011;52868;49.758;9.586;2022-11-03T02:48:27;3.10;;;1.73;;
66085;SDS011;52868;49.758;9.586;2022-11-03T02:50:54;3.33;;;1.80;;
66085;SDS011;52868;49.758;9.586;2022-11-03T02:53:19;3.95;;;2.10;;
66085;SDS011;52868;49.758;9.586;2022-11-03T02:56:04;4.30;;;2.10;;
66085;SDS011;52868;49.758;9.586;2022-11-03T03:01:32;3.22;;;1.90;;
66085;SDS011;52868;49.758;9.586;2022-11-03T03:04:36;3.20;;;1.80;;
66085;SDS011;52868;49.758;9.586;2022-11-03T03:07:07;3.88;;;1.83;;
66085;SDS011;52868;49.758;9.586;2022-11-03T03:09:40;3.40;;;1.98;;
66085;SDS011;52868;49.758;9.586;2022-11-03T03:12:10;3.38;;;1.80;;
66085;SDS011;52868;49.758;9.586;2022-11-03T03:14:40;4.05;;;2.05;;
66085;SDS011;52868;49.758;9.586;2022-11-03T03:25:11;6.60;;;2.10;;
66085;SDS011;52868;49.758;9.586;2022-11-03T03:27:48;4.43;;;2.03;;
66085;SDS011;52868;49.758;9.586;2022-11-03T03:30:17;3.80;;;1.90;;
66085;SDS011;52868;49.758;9.586;2022-11-03T03:32:44;3.60;;;1.95;;
66085;SDS011;52868;49.758;9.586;2022-11-03T03:35:22;4.40;;;2.27;;
66085;SDS011;52868;49.758;9.586;2022-11-03T03:37:50;5.20;;;2.20;;
66085;SDS011;52868;49.758;9.586;2022-11-03T03:40:23;5.47;;;1.88;;
66085;SDS011;52868;49.758;9.586;2022-11-03T03:42:53;4.38;;;2.10;;
66085;SDS011;52868;49.758;9.586;2022-11-03T03:45:19;5.80;;;2.17;;
66085;SDS011;52868;49.758;9.586;2022-11-03T03:47:45;3.08;;;1.88;;
66085;SDS011;52868;49.758;9.586;2022-11-03T03:50:11;2.97;;;1.70;;
66085;SDS011;52868;49.758;9.586;2022-11-03T03:52:37;4.32;;;2.30;;
66085;SDS011;52868;49.758;9.586;2022-11-03T03:55:03;4.68;;;2.13;;
66085;SDS011;52868;49.758;9.586;2022-11-03T03:57:36;5.60;;;2.10;;
66085;SDS011;52868;49.758;9.586;2022-11-03T04:00:02;3.45;;;1.98;;
66085;SDS011;52868;49.758;9.586;2022-11-03T04:02:28;5.53;;;1.85;;
66085;SDS011;52868;49.758;9.586;2022-11-03T04:04:53;4.30;;;1.90;;
66085;SDS011;52868;49.758;9.586;2022-11-03T04:07:19;3.70;;;2.03;;
66085;SDS011;52868;49.758;9.586;2022-11-03T04:10:03;3.60;;;1.95;;
66085;SDS011;52868;49.758;9.586;2022-11-03T04:12:29;3.15;;;1.60;;
66085;SDS011;52868;49.758;9.586;2022-11-03T04:15:13;3.67;;;1.83;;
66085;SDS011;52868;49.758;9.586;2022-11-03T04:17:58;4.07;;;2.13;;
66085;SDS011;52868;49.758;9.586;2022-11-03T04:20:44;4.18;;;1.92;;
66085;SDS011;52868;49.758;9.586;2022-11-03T04:23:29;3.08;;;1.70;;
66085;SDS011;52868;49.758;9.586;2022-11-03T04:25:55;5.35;;;2.47;;
66085;SDS011;52868;49.758;9.586;2022-11-03T04:28:21;4.88;;;2.13;;
66085;SDS011;52868;49.758;9.586;2022-11-03T04:30:48;4.47;;;1.77;;
66085;SDS011;52868;49.758;9.586;2022-11-03T04:33:17;4.18;;;2.00;;
66085;SDS011;52868;49.758;9.586;2022-11-03T04:35:45;4.45;;;2.05;;
66085;SDS011;52868;49.758;9.586;2022-11-03T04:40:40;5.43;;;2.00;;
66085;SDS011;52868;49.758;9.586;2022-11-03T04:43:11;3.28;;;1.98;;
66085;SDS011;52868;49.758;9.586;2022-11-03T04:45:38;3.38;;;1.65;;
66085;SDS011;52868;49.758;9.586;2022-11-03T04:48:10;3.70;;;2.03;;
66085;SDS011;52868;49.758;9.586;2022-11-03T04:50:42;3.60;;;1.90;;
66085;SDS011;52868;49.758;9.586;2022-11-03T04:53:12;3.28;;;1.60;;
66085;SDS011;52868;49.758;9.586;2022-11-03T04:55:40;4.57;;;1.90;;
66085;SDS011;52868;49.758;9.586;2022-11-03T04:58:13;2.50;;;1.50;;
66085;SDS011;52868;49.758;9.586;2022-11-03T05:00:43;4.10;;;1.75;;
66085;SDS011;52868;49.758;9.586;2022-11-03T05:03:31;3.42;;;1.90;;
66085;SDS011;52868;49.758;9.586;2022-11-03T05:06:00;3.92;;;1.98;;
66085;SDS011;52868;49.758;9.586;2022-11-03T05:08:33;2.90;;;1.83;;
66085;SDS011;52868;49.758;9.586;2022-11-03T05:10:59;3.90;;;2.10;;
66085;SDS011;52868;49.758;9.586;2022-11-03T05:13:28;3.03;;;1.92;;
66085;SDS011;52868;49.758;9.586;2022-11-03T05:15:58;3.67;;;1.52;;
66085;SDS011;52868;49.758;9.586;2022-11-03T05:18:31;3.10;;;1.52;;
66085;SDS011;52868;49.758;9.586;2022-11-03T05:21:08;2.72;;;1.40;;
66085;SDS011;52868;49.758;9.586;2022-11-03T05:23:40;4.80;;;1.85;;
66085;SDS011;52868;49.758;9.586;2022-11-03T05:26:17;3.13;;;1.73;;
66085;SDS011;52868;49.758;9.586;2022-11-03T05:31:33;4.53;;;1.92;;
66085;SDS011;52868;49.758;9.586;2022-11-03T05:34:01;2.50;;;1.55;;
66085;SDS011;52868;49.758;9.586;2022-11-03T05:36:31;4.75;;;1.67;;
66085;SDS011;52868;49.758;9.586;2022-11-03T05:38:59;2.97;;;1.55;;
66085;SDS011;52868;49.758;9.586;2022-11-03T05:41:41;3.30;;;1.60;;
66085;SDS011;52868;49.758;9.586;2022-11-03T05:44:15;5.90;;;2.53;;
66085;SDS011;52868;49.758;9.586;2022-11-03T05:46:58;4.40;;;2.28;;
66085;SDS011;52868;49.758;9.586;2022-11-03T05:49:26;4.90;;;2.10;;
66085;SDS011;52868;49.758;9.586;2022-11-03T05:51:53;4.35;;;1.88;;
66085;SDS011;52868;49.758;9.586;2022-11-03T05:54:26;4.65;;;1.98;;
66085;SDS011;52868;49.758;9.586;2022-11-03T05:56:55;4.93;;;2.00;;
66085;SDS011;52868;49.758;9.586;2022-11-03T05:59:25;4.18;;;1.70;;
66085;SDS011;52868;49.758;9.586;2022-11-03T06:01:53;2.08;;;1.60;;
66085;SDS011;52868;49.758;9.586;2022-11-03T06:04:25;3.70;;;1.77;;
66085;SDS011;52868;49.758;9.586;2022-11-03T06:07:00;2.78;;;1.70;;
66085;SDS011;52868;49.758;9.586;2022-11-03T06:09:28;3.47;;;1.80;;
66085;SDS011;52868;49.758;9.586;2022-11-03T06:11:58;8.07;;;2.00;;
66085;SDS011;52868;49.758;9.586;2022-11-03T06:14:27;6.38;;;1.83;;
66085;SDS011;52868;49.758;9.586;2022-11-03T06:16:55;3.83;;;1.80;;
66085;SDS011;52868;49.758;9.586;2022-11-03T06:19:27;3.08;;;1.75;;
66085;SDS011;52868;49.758;9.586;2022-11-03T06:22:01;4.68;;;1.90;;
66085;SDS011;52868;49.758;9.586;2022-11-03T06:24:38;3.72;;;1.80;;
66085;SDS011;52868;49.758;9.586;2022-11-03T06:27:03;2.85;;;1.90;;
66085;SDS011;52868;49.758;9.586;2022-11-03T06:29:29;3.63;;;1.83;;
66085;SDS011;52868;49.758;9.586;2022-11-03T06:31:57;4.28;;;1.65;;
66085;SDS011;52868;49.758;9.586;2022-11-03T06:34:36;2.28;;;1.42;;
66085;SDS011;52868;49.758;9.586;2022-11-03T06:40:47;7.63;;;1.80;;
66085;SDS011;52868;49.758;9.586;2022-11-03T06:42:56;3.33;;;1.65;;
66085;SDS011;52868;49.758;9.586;2022-11-03T06:45:23;3.97;;;1.83;;
66085;SDS011;52868;49.758;9.586;2022-11-03T06:47:50;3.45;;;2.00;;
66085;SDS011;52868;49.758;9.586;2022-11-03T06:50:28;5.80;;;2.13;;
66085;SDS011;52868;49.758;9.586;2022-11-03T06:52:56;3.97;;;1.90;;
66085;SDS011;52868;49.758;9.586;2022-11-03T06:57:57;7.20;;;2.83;;
66085;SDS011;52868;49.758;9.586;2022-11-03T07:00:27;4.25;;;2.33;;
66085;SDS011;52868;49.758;9.586;2022-11-03T07:03:02;4.55;;;2.28;;
66085;SDS011;52868;49.758;9.586;2022-11-03T07:05:32;5.68;;;2.42;;
66085;SDS011;52868;49.758;9.586;2022-11-03T07:07:59;6.75;;;2.58;;
66085;SDS011;52868;49.758;9.586;2022-11-03T07:10:37;6.53;;;2.58;;
66085;SDS011;52868;49.758;9.586;2022-11-03T07:13:21;6.60;;;2.72;;
66085;SDS011;52868;49.758;9.586;2022-11-03T07:15:48;4.65;;;2.30;;
66085;SDS011;52868;49.758;9.586;2022-11-03T07:18:22;4.72;;;2.30;;
66085;SDS011;52868;49.758;9.586;2022-11-03T07:20:53;3.88;;;2.00;;
66085;SDS011;52868;49.758;9.586;2022-11-03T07:23:21;4.05;;;2.05;;
66085;SDS011;52868;49.758;9.586;2022-11-03T07:25:55;5.18;;;2.33;;
66085;SDS011;52868;49.758;9.586;2022-11-03T07:28:23;4.68;;;2.60;;
66085;SDS011;52868;49.758;9.586;2022-11-03T07:30:57;5.75;;;2.78;;
66085;SDS011;52868;49.758;9.586;2022-11-03T07:33:25;4.57;;;2.53;;
66085;SDS011;52868;49.758;9.586;2022-11-03T07:35:53;5.03;;;2.55;;
66085;SDS011;52868;49.758;9.586;2022-11-03T07:38:21;3.53;;;2.10;;
66085;SDS011;52868;49.758;9.586;2022-11-03T07:40:49;6.35;;;2.50;;
66085;SDS011;52868;49.758;9.586;2022-11-03T07:43:21;4.75;;;2.28;;
66085;SDS011;52868;49.758;9.586;2022-11-03T07:50:45;10.48;;;2.78;;
66085;SDS011;52868;49.758;9.586;2022-11-03T07:53:13;5.95;;;2.53;;
66085;SDS011;52868;49.758;9.586;2022-11-03T07:55:58;14.05;;;2.58;;
66085;SDS011;52868;49.758;9.586;2022-11-03T07:58:35;4.93;;;2.20;;
66085;SDS011;52868;49.758;9.586;2022-11-03T08:01:49;5.05;;;2.40;;
66085;SDS011;52868;49.758;9.586;2022-11-03T08:04:00;6.70;;;2.58;;
66085;SDS011;52868;49.758;9.586;2022-11-03T08:06:29;7.72;;;3.13;;
66085;SDS011;52868;49.758;9.586;2022-11-03T08:08:55;7.28;;;2.88;;
66085;SDS011;52868;49.758;9.586;2022-11-03T08:11:21;6.88;;;2.70;;
66085;SDS011;52868;49.758;9.586;2022-11-03T08:13:48;5.60;;;2.50;;
66085;SDS011;52868;49.758;9.586;2022-11-03T08:16:17;6.63;;;2.90;;
66085;SDS011;52868;49.758;9.586;2022-11-03T08:18:43;6.28;;;2.80;;
66085;SDS011;52868;49.758;9.586;2022-11-03T08:21:09;8.02;;;3.13;;
66085;SDS011;52868;49.758;9.586;2022-11-03T08:23:35;7.75;;;3.50;;
66085;SDS011;52868;49.758;9.586;2022-11-03T08:26:01;9.98;;;4.00;;
66085;SDS011;52868;49.758;9.586;2022-11-03T08:28:27;10.48;;;3.65;;
66085;SDS011;52868;49.758;9.586;2022-11-03T08:30:53;10.45;;;4.15;;
66085;SDS011;52868;49.758;9.586;2022-11-03T08:33:19;8.82;;;4.00;;
66085;SDS011;52868;49.758;9.586;2022-11-03T08:35:45;9.32;;;3.80;;
66085;SDS011;52868;49.758;9.586;2022-11-03T08:38:10;10.95;;;3.90;;
66085;SDS011;52868;49.758;9.586;2022-11-03T08:40:38;9.68;;;4.13;;
66085;SDS011;52868;49.758;9.586;2022-11-03T08:43:04;8.57;;;3.40;;
66085;SDS011;52868;49.758;9.586;2022-11-03T08:45:30;7.95;;;3.75;;
66085;SDS011;52868;49.758;9.586;2022-11-03T08:47:56;6.28;;;2.90;;
66085;SDS011;52868;49.758;9.586;2022-11-03T08:50:22;6.82;;;3.40;;
66085;SDS011;52868;49.758;9.586;2022-11-03T08:52:48;7.22;;;3.30;;
66085;SDS011;52868;49.758;9.586;2022-11-03T08:55:13;9.07;;;3.65;;
66085;SDS011;52868;49.758;9.586;2022-11-03T08:57:39;7.45;;;3.28;;
66085;SDS011;52868;49.758;9.586;2022-11-03T09:00:05;7.63;;;3.05;;
66085;SDS011;52868;49.758;9.586;2022-11-03T09:02:32;8.15;;;3.10;;
66085;SDS011;52868;49.758;9.586;2022-11-03T09:04:58;6.78;;;3.42;;
66085;SDS011;52868;49.758;9.586;2022-11-03T09:07:23;8.15;;;3.08;;
66085;SDS011;52868;49.758;9.586;2022-11-03T09:09:49;4.70;;;2.50;;
66085;SDS011;52868;49.758;9.586;2022-11-03T09:12:15;8.85;;;3.50;;
66085;SDS011;52868;49.758;9.586;2022-11-03T09:14:41;6.38;;;3.20;;
66085;SDS011;52868;49.758;9.586;2022-11-03T09:17:06;7.00;;;2.90;;
66085;SDS011;52868;49.758;9.586;2022-11-03T09:19:32;8.13;;;3.63;;
66085;SDS011;52868;49.758;9.586;2022-11-03T09:21:58;9.45;;;4.13;;
66085;SDS011;52868;49.758;9.586;2022-11-03T09:24:24;8.68;;;3.45;;
66085;SDS011;52868;49.758;9.586;2022-11-03T09:26:50;6.68;;;3.58;;
66085;SDS011;52868;49.758;9.586;2022-11-03T09:29:16;11.45;;;4.30;;
66085;SDS011;52868;49.758;9.586;2022-11-03T09:31:42;8.30;;;4.10;;
66085;SDS011;52868;49.758;9.586;2022-11-03T09:34:08;10.85;;;5.22;;
66085;SDS011;52868;49.758;9.586;2022-11-03T09:36:33;10.63;;;4.15;;
66085;SDS011;52868;49.758;9.586;2022-11-03T09:38:59;12.48;;;4.72;;
66085;SDS011;52868;49.758;9.586;2022-11-03T09:41:25;11.43;;;4.68;;
66085;SDS011;52868;49.758;9.586;2022-11-03T09:43:51;11.75;;;4.45;;
66085;SDS011;52868;49.758;9.586;2022-11-03T09:46:17;15.07;;;5.38;;
66085;SDS011;52868;49.758;9.586;2022-11-03T09:48:43;13.27;;;5.10;;
66085;SDS011;52868;49.758;9.586;2022-11-03T09:51:09;12.90;;;4.85;;
66085;SDS011;52868;49.758;9.586;2022-11-03T09:53:41;12.00;;;5.07;;
66085;SDS011;52868;49.758;9.586;2022-11-03T09:56:08;12.88;;;5.40;;
66085;SDS011;52868;49.758;9.586;2022-11-03T09:58:34;13.68;;;5.30;;
66085;SDS011;52868;49.758;9.586;2022-11-03T10:01:00;12.57;;;5.38;;
66085;SDS011;52868;49.758;9.586;2022-11-03T10:03:26;12.88;;;6.03;;
66085;SDS011;52868;49.758;9.586;2022-11-03T10:05:53;13.57;;;5.80;;
66085;SDS011;52868;49.758;9.586;2022-11-03T10:08:28;11.07;;;5.40;;
66085;SDS011;52868;49.758;9.586;2022-11-03T10:10:56;15.63;;;5.18;;
66085;SDS011;52868;49.758;9.586;2022-11-03T10:13:25;13.35;;;5.40;;
66085;SDS011;52868;49.758;9.586;2022-11-03T10:15:58;12.90;;;5.32;;
66085;SDS011;52868;49.758;9.586;2022-11-03T10:18:26;17.17;;;5.57;;
66085;SDS011;52868;49.758;9.586;2022-11-03T10:20:53;12.80;;;5.45;;
66085;SDS011;52868;49.758;9.586;2022-11-03T10:23:19;13.40;;;4.93;;
66085;SDS011;52868;49.758;9.586;2022-11-03T10:25:46;17.08;;;6.22;;
66085;SDS011;52868;49.758;9.586;2022-11-03T10:28:20;11.68;;;5.18;;
66085;SDS011;52868;49.758;9.586;2022-11-03T10:30:58;14.75;;;5.55;;
66085;SDS011;52868;49.758;9.586;2022-11-03T10:35:56;16.73;;;6.07;;
66085;SDS011;52868;49.758;9.586;2022-11-03T10:40:51;16.75;;;6.38;;
66085;SDS011;52868;49.758;9.586;2022-11-03T10:43:18;22.13;;;7.03;;
66085;SDS011;52868;49.758;9.586;2022-11-03T10:45:44;17.23;;;6.57;;
66085;SDS011;52868;49.758;9.586;2022-11-03T10:48:10;18.20;;;6.65;;
66085;SDS011;52868;49.758;9.586;2022-11-03T10:50:38;13.73;;;5.50;;
66085;SDS011;52868;49.758;9.586;2022-11-03T10:53:12;16.02;;;6.72;;
66085;SDS011;52868;49.758;9.586;2022-11-03T10:55:41;15.02;;;6.03;;
66085;SDS011;52868;49.758;9.586;2022-11-03T10:58:07;13.23;;;6.15;;
66085;SDS011;52868;49.758;9.586;2022-11-03T11:00:33;14.73;;;6.40;;
66085;SDS011;52868;49.758;9.586;2022-11-03T11:02:59;14.13;;;6.20;;
66085;SDS011;52868;49.758;9.586;2022-11-03T11:05:25;13.75;;;6.40;;
66085;SDS011;52868;49.758;9.586;2022-11-03T11:07:52;12.48;;;6.10;;
66085;SDS011;52868;49.758;9.586;2022-11-03T11:10:22;14.70;;;6.82;;
66085;SDS011;52868;49.758;9.586;2022-11-03T11:13:03;12.80;;;6.28;;
66085;SDS011;52868;49.758;9.586;2022-11-03T11:15:56;13.95;;;6.70;;
66085;SDS011;52868;49.758;9.586;2022-11-03T11:20:52;20.03;;;6.87;;
66085;SDS011;52868;49.758;9.586;2022-11-03T11:31:38;12.20;;;5.55;;
66085;SDS011;52868;49.758;9.586;2022-11-03T11:36:32;10.98;;;5.40;;
66085;SDS011;52868;49.758;9.586;2022-11-03T11:38:59;16.23;;;5.38;;
66085;SDS011;52868;49.758;9.586;2022-11-03T11:53:16;12.10;;;5.32;;
66085;SDS011;52868;49.758;9.586;2022-11-03T12:01:04;14.88;;;5.97;;
66085;SDS011;52868;49.758;9.586;2022-11-03T12:03:43;16.08;;;6.75;;
66085;SDS011;52868;49.758;9.586;2022-11-03T12:06:13;15.52;;;6.43;;
66085;SDS011;52868;49.758;9.586;2022-11-03T12:08:40;13.57;;;6.32;;
66085;SDS011;52868;49.758;9.586;2022-11-03T12:11:06;15.80;;;6.35;;
66085;SDS011;52868;49.758;9.586;2022-11-03T12:22:04;16.90;;;6.40;;
66085;SDS011;52868;49.758;9.586;2022-11-03T12:24:56;12.88;;;5.53;;
66085;SDS011;52868;49.758;9.586;2022-11-03T12:29:48;16.95;;;6.43;;
66085;SDS011;52868;49.758;9.586;2022-11-03T12:32:17;17.90;;;6.57;;
66085;SDS011;52868;49.758;9.586;2022-11-03T12:34:43;16.58;;;6.35;;
66085;SDS011;52868;49.758;9.586;2022-11-03T12:37:09;16.67;;;5.47;;
66085;SDS011;52868;49.758;9.586;2022-11-03T12:39:35;12.80;;;5.53;;
66085;SDS011;52868;49.758;9.586;2022-11-03T12:42:02;10.48;;;5.03;;
66085;SDS011;52868;49.758;9.586;2022-11-03T12:44:27;25.30;;;6.75;;
66085;SDS011;52868;49.758;9.586;2022-11-03T12:46:53;15.45;;;6.03;;
66085;SDS011;52868;49.758;9.586;2022-11-03T12:49:19;13.50;;;5.63;;
66085;SDS011;52868;49.758;9.586;2022-11-03T12:51:44;13.68;;;6.18;;
66085;SDS011;52868;49.758;9.586;2022-11-03T12:54:10;15.63;;;6.47;;
66085;SDS011;52868;49.758;9.586;2022-11-03T12:56:35;16.17;;;6.18;;
66085;SDS011;52868;49.758;9.586;2022-11-03T12:59:01;12.43;;;5.82;;
66085;SDS011;52868;49.758;9.586;2022-11-03T13:01:27;13.95;;;6.68;;
66085;SDS011;52868;49.758;9.586;2022-11-03T13:03:52;15.45;;;6.20;;
66085;SDS011;52868;49.758;9.586;2022-11-03T13:06:18;11.32;;;5.82;;
66085;SDS011;52868;49.758;9.586;2022-11-03T13:08:43;23.15;;;6.70;;
66085;SDS011;52868;49.758;9.586;2022-11-03T13:11:10;12.95;;;5.68;;
66085;SDS011;52868;49.758;9.586;2022-11-03T13:13:55;11.07;;;5.35;;
66085;SDS011;52868;49.758;9.586;2022-11-03T13:16:21;10.80;;;5.70;;
66085;SDS011;52868;49.758;9.586;2022-11-03T13:18:47;16.85;;;6.15;;
66085;SDS011;52868;49.758;9.586;2022-11-03T13:21:13;15.18;;;5.93;;
66085;SDS011;52868;49.758;9.586;2022-11-03T13:23:39;14.27;;;5.55;;
66085;SDS011;52868;49.758;9.586;2022-11-03T13:26:05;14.32;;;5.57;;
66085;SDS011;52868;49.758;9.586;2022-11-03T13:28:31;14.82;;;5.40;;
66085;SDS011;52868;49.758;9.586;2022-11-03T13:30:56;9.25;;;4.72;;
66085;SDS011;52868;49.758;9.586;2022-11-03T13:33:22;12.90;;;6.35;;
66085;SDS011;52868;49.758;9.586;2022-11-03T13:35:47;14.20;;;5.07;;
66085;SDS011;52868;49.758;9.586;2022-11-03T13:38:13;13.30;;;5.85;;
66085;SDS011;52868;49.758;9.586;2022-11-03T13:40:41;14.55;;;5.20;;
66085;SDS011;52868;49.758;9.586;2022-11-03T13:43:07;11.00;;;5.63;;
66085;SDS011;52868;49.758;9.586;2022-11-03T13:45:33;11.68;;;5.28;;
66085;SDS011;52868;49.758;9.586;2022-11-03T13:47:58;15.25;;;5.70;;
66085;SDS011;52868;49.758;9.586;2022-11-03T13:50:24;12.75;;;5.10;;
66085;SDS011;52868;49.758;9.586;2022-11-03T13:52:50;10.40;;;4.80;;
66085;SDS011;52868;49.758;9.586;2022-11-03T13:55:15;10.55;;;5.05;;
66085;SDS011;52868;49.758;9.586;2022-11-03T13:57:41;17.92;;;4.63;;
66085;SDS011;52868;49.758;9.586;2022-11-03T14:00:08;9.73;;;4.47;;
66085;SDS011;52868;49.758;9.586;2022-11-03T14:02:38;11.15;;;4.97;;
66085;SDS011;52868;49.758;9.586;2022-11-03T14:05:04;13.50;;;4.55;;
66085;SDS011;52868;49.758;9.586;2022-11-03T14:07:30;12.68;;;5.18;;
66085;SDS011;52868;49.758;9.586;2022-11-03T14:09:55;14.70;;;5.10;;
66085;SDS011;52868;49.758;9.586;2022-11-03T14:12:21;11.13;;;4.13;;
66085;SDS011;52868;49.758;9.586;2022-11-03T14:15:28;10.52;;;4.95;;
66085;SDS011;52868;49.758;9.586;2022-11-03T14:17:47;11.68;;;5.45;;
66085;SDS011;52868;49.758;9.586;2022-11-03T14:20:13;10.18;;;4.57;;
66085;SDS011;52868;49.758;9.586;2022-11-03T14:22:39;10.95;;;4.72;;
66085;SDS011;52868;49.758;9.586;2022-11-03T14:25:05;10.63;;;5.13;;
66085;SDS011;52868;49.758;9.586;2022-11-03T14:27:31;12.45;;;5.03;;
66085;SDS011;52868;49.758;9.586;2022-11-03T14:29:57;17.13;;;6.03;;
66085;SDS011;52868;49.758;9.586;2022-11-03T14:32:23;10.95;;;5.30;;
66085;SDS011;52868;49.758;9.586;2022-11-03T14:34:48;16.15;;;5.40;;
66085;SDS011;52868;49.758;9.586;2022-11-03T14:37:14;19.50;;;8.85;;
66085;SDS011;52868;49.758;9.586;2022-11-03T14:39:40;14.65;;;6.40;;
66085;SDS011;52868;49.758;9.586;2022-11-03T14:42:07;13.77;;;7.10;;
66085;SDS011;52868;49.758;9.586;2022-11-03T14:44:39;12.65;;;6.28;;
66085;SDS011;52868;49.758;9.586;2022-11-03T14:47:06;18.38;;;6.35;;
66085;SDS011;52868;49.758;9.586;2022-11-03T14:49:34;16.87;;;6.53;;
66085;SDS011;52868;49.758;9.586;2022-11-03T14:52:00;12.82;;;5.93;;
66085;SDS011;52868;49.758;9.586;2022-11-03T14:54:27;11.93;;;5.72;;
66085;SDS011;52868;49.758;9.586;2022-11-03T14:56:53;13.93;;;5.70;;
66085;SDS011;52868;49.758;9.586;2022-11-03T14:59:19;10.75;;;4.95;;
66085;SDS011;52868;49.758;9.586;2022-11-03T15:01:46;11.65;;;5.07;;
66085;SDS011;52868;49.758;9.586;2022-11-03T15:04:12;16.20;;;5.57;;
66085;SDS011;52868;49.758;9.586;2022-11-03T15:06:38;14.77;;;5.28;;
66085;SDS011;52868;49.758;9.586;2022-11-03T15:09:05;12.38;;;5.65;;
66085;SDS011;52868;49.758;9.586;2022-11-03T15:11:32;11.50;;;5.07;;
66085;SDS011;52868;49.758;9.586;2022-11-03T15:13:57;13.65;;;5.15;;
66085;SDS011;52868;49.758;9.586;2022-11-03T15:16:24;12.73;;;5.53;;
66085;SDS011;52868;49.758;9.586;2022-11-03T15:18:50;9.90;;;4.47;;
66085;SDS011;52868;49.758;9.586;2022-11-03T15:21:16;12.55;;;4.85;;
66085;SDS011;52868;49.758;9.586;2022-11-03T15:23:42;11.70;;;4.97;;
66085;SDS011;52868;49.758;9.586;2022-11-03T15:26:07;14.48;;;5.38;;
66085;SDS011;52868;49.758;9.586;2022-11-03T15:28:33;13.13;;;5.10;;
66085;SDS011;52868;49.758;9.586;2022-11-03T15:30:59;12.75;;;5.75;;
66085;SDS011;52868;49.758;9.586;2022-11-03T15:33:45;14.02;;;5.72;;
66085;SDS011;52868;49.758;9.586;2022-11-03T15:36:10;13.98;;;5.60;;
66085;SDS011;52868;49.758;9.586;2022-11-03T15:38:36;12.45;;;5.90;;
66085;SDS011;52868;49.758;9.586;2022-11-03T15:41:02;12.85;;;5.50;;
66085;SDS011;52868;49.758;9.586;2022-11-03T15:43:40;12.10;;;5.40;;
66085;SDS011;52868;49.758;9.586;2022-11-03T15:46:07;9.68;;;4.88;;
66085;SDS011;52868;49.758;9.586;2022-11-03T15:48:33;11.32;;;4.90;;
66085;SDS011;52868;49.758;9.586;2022-11-03T15:50:58;12.50;;;5.60;;
66085;SDS011;52868;49.758;9.586;2022-11-03T15:53:24;13.15;;;5.38;;
66085;SDS011;52868;49.758;9.586;2022-11-03T15:55:50;9.98;;;5.50;;
66085;SDS011;52868;49.758;9.586;2022-11-03T15:58:15;15.60;;;6.43;;
66085;SDS011;52868;49.758;9.586;2022-11-03T16:00:41;13.70;;;6.40;;
66085;SDS011;52868;49.758;9.586;2022-11-03T16:03:06;16.60;;;7.40;;
66085;SDS011;52868;49.758;9.586;2022-11-03T16:05:32;20.38;;;8.32;;
66085;SDS011;52868;49.758;9.586;2022-11-03T16:07:57;22.98;;;8.48;;
66085;SDS011;52868;49.758;9.586;2022-11-03T16:10:24;22.88;;;10.07;;
66085;SDS011;52868;49.758;9.586;2022-11-03T16:12:50;20.27;;;8.85;;
66085;SDS011;52868;49.758;9.586;2022-11-03T16:15:15;17.13;;;7.97;;
66085;SDS011;52868;49.758;9.586;2022-11-03T16:17:41;24.60;;;8.30;;
66085;SDS011;52868;49.758;9.586;2022-11-03T16:20:07;19.70;;;8.18;;
66085;SDS011;52868;49.758;9.586;2022-11-03T16:22:34;20.63;;;8.52;;
66085;SDS011;52868;49.758;9.586;2022-11-03T16:25:00;22.15;;;8.20;;